sensor_id;sensor_type;location;lat;lon;timestamp;P1;durP1;ratioP1;P2;durP2;ratioP2
66012;SDS011;52783;50.502;8.190;2023-10-31T00:00:38;2.53;;;1.50;;
66012;SDS011;52783;50.502;8.190;2023-10-31T00:03:03;1.60;;;1.50;;
66012;SDS011;52783;50.502;8.190;2023-10-31T00:05:29;1.58;;;1.13;;
66012;SDS011;52783;50.502;8.190;2023-10-31T00:07:54;1.38;;;1.27;;
66012;SDS011;52783;50.502;8.190;2023-10-31T00:10:20;1.00;;;1.00;;
66012;SDS011;52783;50.502;8.190;2023-10-31T00:12:45;1.53;;;1.40;;
66012;SDS011;52783;50.502;8.190;2023-10-31T00:15:11;3.15;;;1.00;;
66012;SDS011;52783;50.502;8.190;2023-10-31T00:17:36;4.28;;;1.20;;
66012;SDS011;52783;50.502;8.190;2023-10-31T00:20:03;2.13;;;1.23;;
66012;SDS011;52783;50.502;8.190;2023-10-31T00:22:30;3.13;;;1.25;;
66012;SDS011;52783;50.502;8.190;2023-10-31T00:24:55;7.68;;;1.20;;
66012;SDS011;52783;50.502;8.190;2023-10-31T00:27:21;3.90;;;0.93;;
66012;SDS011;52783;50.502;8.190;2023-10-31T00:29:46;0.90;;;0.90;;
66012;SDS011;52783;50.502;8.190;2023-10-31T00:32:12;2.40;;;1.00;;
66012;SDS011;52783;50.502;8.190;2023-10-31T00:34:37;0.95;;;0.80;;
66012;SDS011;52783;50.502;8.190;2023-10-31T00:37:03;4.70;;;0.88;;
66012;SDS011;52783;50.502;8.190;2023-10-31T00:39:29;0.70;;;0.70;;
66012;SDS011;52783;50.502;8.190;2023-10-31T00:41:54;0.73;;;0.73;;
66012;SDS011;52783;50.502;8.190;2023-10-31T00:44:20;1.85;;;0.70;;
66012;SDS011;52783;50.502;8.190;2023-10-31T00:46:45;0.60;;;0.60;;
66012;SDS011;52783;50.502;8.190;2023-10-31T00:49:11;0.60;;;0.60;;
66012;SDS011;52783;50.502;8.190;2023-10-31T00:51:36;0.75;;;0.70;;
66012;SDS011;52783;50.502;8.190;2023-10-31T00:54:02;3.00;;;0.98;;
66012;SDS011;52783;50.502;8.190;2023-10-31T00:56:27;2.30;;;0.75;;
66012;SDS011;52783;50.502;8.190;2023-10-31T00:58:53;0.65;;;0.65;;
66012;SDS011;52783;50.502;8.190;2023-10-31T01:01:18;0.55;;;0.55;;
66012;SDS011;52783;50.502;8.190;2023-10-31T01:03:44;1.75;;;0.75;;
66012;SDS011;52783;50.502;8.190;2023-10-31T01:06:09;1.95;;;1.00;;
66012;SDS011;52783;50.502;8.190;2023-10-31T01:08:35;5.15;;;0.90;;
66012;SDS011;52783;50.502;8.190;2023-10-31T01:11:00;2.85;;;0.85;;
66012;SDS011;52783;50.502;8.190;2023-10-31T01:13:26;2.35;;;1.00;;
66012;SDS011;52783;50.502;8.190;2023-10-31T01:15:51;0.70;;;0.70;;
66012;SDS011;52783;50.502;8.190;2023-10-31T01:18:17;14.98;;;1.10;;
66012;SDS011;52783;50.502;8.190;2023-10-31T01:20:42;2.92;;;0.80;;
66012;SDS011;52783;50.502;8.190;2023-10-31T01:23:08;0.85;;;0.52;;
66012;SDS011;52783;50.502;8.190;2023-10-31T01:25:34;0.70;;;0.70;;
66012;SDS011;52783;50.502;8.190;2023-10-31T01:27:59;1.77;;;0.70;;
66012;SDS011;52783;50.502;8.190;2023-10-31T01:30:25;0.43;;;0.43;;
66012;SDS011;52783;50.502;8.190;2023-10-31T01:32:50;2.85;;;1.45;;
66012;SDS011;52783;50.502;8.190;2023-10-31T01:35:16;0.60;;;0.60;;
66012;SDS011;52783;50.502;8.190;2023-10-31T01:37:41;1.75;;;0.57;;
66012;SDS011;52783;50.502;8.190;2023-10-31T01:40:07;1.48;;;0.40;;
66012;SDS011;52783;50.502;8.190;2023-10-31T01:42:33;0.75;;;0.70;;
66012;SDS011;52783;50.502;8.190;2023-10-31T01:44:59;0.98;;;0.50;;
66012;SDS011;52783;50.502;8.190;2023-10-31T01:47:24;0.57;;;0.57;;
66012;SDS011;52783;50.502;8.190;2023-10-31T01:49:50;5.10;;;0.70;;
66012;SDS011;52783;50.502;8.190;2023-10-31T01:52:17;0.70;;;0.70;;
66012;SDS011;52783;50.502;8.190;2023-10-31T01:54:43;0.88;;;0.50;;
66012;SDS011;52783;50.502;8.190;2023-10-31T01:57:09;3.50;;;0.60;;
66012;SDS011;52783;50.502;8.190;2023-10-31T01:59:36;0.73;;;0.73;;
66012;SDS011;52783;50.502;8.190;2023-10-31T02:02:01;0.57;;;0.57;;
66012;SDS011;52783;50.502;8.190;2023-10-31T02:04:28;4.47;;;0.70;;
66012;SDS011;52783;50.502;8.190;2023-10-31T02:06:54;7.10;;;1.05;;
66012;SDS011;52783;50.502;8.190;2023-10-31T02:09:20;0.75;;;0.50;;
66012;SDS011;52783;50.502;8.190;2023-10-31T02:11:49;3.85;;;0.55;;
66012;SDS011;52783;50.502;8.190;2023-10-31T02:14:15;0.70;;;0.70;;
66012;SDS011;52783;50.502;8.190;2023-10-31T02:16:41;0.70;;;0.70;;
66012;SDS011;52783;50.502;8.190;2023-10-31T02:19:06;3.72;;;0.30;;
66012;SDS011;52783;50.502;8.190;2023-10-31T02:21:32;2.58;;;0.50;;
66012;SDS011;52783;50.502;8.190;2023-10-31T02:24:01;0.47;;;0.47;;
66012;SDS011;52783;50.502;8.190;2023-10-31T02:26:30;1.85;;;0.30;;
66012;SDS011;52783;50.502;8.190;2023-10-31T02:28:57;0.90;;;0.45;;
66012;SDS011;52783;50.502;8.190;2023-10-31T02:31:23;0.50;;;0.50;;
66012;SDS011;52783;50.502;8.190;2023-10-31T02:33:48;2.45;;;0.60;;
66012;SDS011;52783;50.502;8.190;2023-10-31T02:36:14;0.65;;;0.65;;
66012;SDS011;52783;50.502;8.190;2023-10-31T02:38:39;1.13;;;0.90;;
66012;SDS011;52783;50.502;8.190;2023-10-31T02:41:05;0.95;;;0.73;;
66012;SDS011;52783;50.502;8.190;2023-10-31T02:43:30;3.55;;;1.00;;
66012;SDS011;52783;50.502;8.190;2023-10-31T02:45:56;0.60;;;0.60;;
66012;SDS011;52783;50.502;8.190;2023-10-31T02:48:22;0.50;;;0.50;;
66012;SDS011;52783;50.502;8.190;2023-10-31T02:50:49;0.55;;;0.55;;
66012;SDS011;52783;50.502;8.190;2023-10-31T02:53:15;0.63;;;0.50;;
66012;SDS011;52783;50.502;8.190;2023-10-31T02:55:42;0.85;;;0.70;;
66012;SDS011;52783;50.502;8.190;2023-10-31T02:58:08;0.52;;;0.52;;
66012;SDS011;52783;50.502;8.190;2023-10-31T03:00:33;0.70;;;0.68;;
66012;SDS011;52783;50.502;8.190;2023-10-31T03:02:59;1.17;;;0.82;;
66012;SDS011;52783;50.502;8.190;2023-10-31T03:05:25;0.60;;;0.50;;
66012;SDS011;52783;50.502;8.190;2023-10-31T03:07:50;2.33;;;0.70;;
66012;SDS011;52783;50.502;8.190;2023-10-31T03:10:17;0.75;;;0.70;;
66012;SDS011;52783;50.502;8.190;2023-10-31T03:12:44;0.50;;;0.50;;
66012;SDS011;52783;50.502;8.190;2023-10-31T03:15:10;2.42;;;0.60;;
66012;SDS011;52783;50.502;8.190;2023-10-31T03:17:36;0.65;;;0.65;;
66012;SDS011;52783;50.502;8.190;2023-10-31T03:20:01;0.60;;;0.60;;
66012;SDS011;52783;50.502;8.190;2023-10-31T03:22:27;1.90;;;0.68;;
66012;SDS011;52783;50.502;8.190;2023-10-31T03:24:53;6.25;;;0.77;;
66012;SDS011;52783;50.502;8.190;2023-10-31T03:27:18;0.50;;;0.50;;
66012;SDS011;52783;50.502;8.190;2023-10-31T03:29:45;0.85;;;0.60;;
66012;SDS011;52783;50.502;8.190;2023-10-31T03:32:11;0.95;;;0.90;;
66012;SDS011;52783;50.502;8.190;2023-10-31T03:34:36;1.80;;;0.93;;
66012;SDS011;52783;50.502;8.190;2023-10-31T03:37:03;4.68;;;0.82;;
66012;SDS011;52783;50.502;8.190;2023-10-31T03:39:29;2.33;;;0.77;;
66012;SDS011;52783;50.502;8.190;2023-10-31T03:41:54;0.60;;;0.60;;
66012;SDS011;52783;50.502;8.190;2023-10-31T03:44:20;1.40;;;0.85;;
66012;SDS011;52783;50.502;8.190;2023-10-31T03:46:45;3.60;;;0.73;;
66012;SDS011;52783;50.502;8.190;2023-10-31T03:49:11;2.60;;;0.63;;
66012;SDS011;52783;50.502;8.190;2023-10-31T03:51:36;0.55;;;0.55;;
66012;SDS011;52783;50.502;8.190;2023-10-31T03:54:02;5.05;;;1.00;;
66012;SDS011;52783;50.502;8.190;2023-10-31T03:56:28;2.03;;;0.90;;
66012;SDS011;52783;50.502;8.190;2023-10-31T03:58:53;0.70;;;0.70;;
66012;SDS011;52783;50.502;8.190;2023-10-31T04:01:19;1.85;;;0.90;;
66012;SDS011;52783;50.502;8.190;2023-10-31T04:03:44;2.10;;;0.65;;
66012;SDS011;52783;50.502;8.190;2023-10-31T04:06:11;0.80;;;0.80;;
66012;SDS011;52783;50.502;8.190;2023-10-31T04:08:37;1.48;;;0.90;;
66012;SDS011;52783;50.502;8.190;2023-10-31T04:11:02;1.08;;;0.77;;
66012;SDS011;52783;50.502;8.190;2023-10-31T04:13:28;1.60;;;0.75;;
66012;SDS011;52783;50.502;8.190;2023-10-31T04:15:53;2.85;;;0.95;;
66012;SDS011;52783;50.502;8.190;2023-10-31T04:18:19;4.60;;;1.02;;
66012;SDS011;52783;50.502;8.190;2023-10-31T04:20:44;2.58;;;0.90;;
66012;SDS011;52783;50.502;8.190;2023-10-31T04:23:10;0.70;;;0.70;;
66012;SDS011;52783;50.502;8.190;2023-10-31T04:25:36;2.50;;;0.75;;
66012;SDS011;52783;50.502;8.190;2023-10-31T04:28:02;1.70;;;0.70;;
66012;SDS011;52783;50.502;8.190;2023-10-31T04:30:28;1.77;;;0.90;;
66012;SDS011;52783;50.502;8.190;2023-10-31T04:32:54;2.03;;;0.77;;
66012;SDS011;52783;50.502;8.190;2023-10-31T04:35:19;1.35;;;1.10;;
66012;SDS011;52783;50.502;8.190;2023-10-31T04:37:45;0.90;;;0.90;;
66012;SDS011;52783;50.502;8.190;2023-10-31T04:40:10;6.53;;;2.38;;
66012;SDS011;52783;50.502;8.190;2023-10-31T04:42:38;5.00;;;3.38;;
66012;SDS011;52783;50.502;8.190;2023-10-31T04:45:07;12.25;;;6.85;;
66012;SDS011;52783;50.502;8.190;2023-10-31T04:47:33;11.05;;;5.97;;
66012;SDS011;52783;50.502;8.190;2023-10-31T04:49:59;11.75;;;6.85;;
66012;SDS011;52783;50.502;8.190;2023-10-31T04:52:24;8.65;;;4.72;;
66012;SDS011;52783;50.502;8.190;2023-10-31T04:54:51;8.98;;;3.72;;
66012;SDS011;52783;50.502;8.190;2023-10-31T04:57:16;4.05;;;1.80;;
66012;SDS011;52783;50.502;8.190;2023-10-31T04:59:42;3.00;;;1.55;;
66012;SDS011;52783;50.502;8.190;2023-10-31T05:02:08;1.50;;;1.08;;
66012;SDS011;52783;50.502;8.190;2023-10-31T05:04:33;2.17;;;0.80;;
66012;SDS011;52783;50.502;8.190;2023-10-31T05:06:58;1.13;;;1.10;;
66012;SDS011;52783;50.502;8.190;2023-10-31T05:09:24;1.55;;;0.70;;
66012;SDS011;52783;50.502;8.190;2023-10-31T05:11:50;3.08;;;0.68;;
66012;SDS011;52783;50.502;8.190;2023-10-31T05:14:16;3.40;;;0.63;;
66012;SDS011;52783;50.502;8.190;2023-10-31T05:16:42;1.00;;;0.90;;
66012;SDS011;52783;50.502;8.190;2023-10-31T05:19:08;6.32;;;2.28;;
66012;SDS011;52783;50.502;8.190;2023-10-31T05:21:34;1.08;;;0.75;;
66012;SDS011;52783;50.502;8.190;2023-10-31T05:24:00;2.30;;;1.17;;
66012;SDS011;52783;50.502;8.190;2023-10-31T05:26:26;2.03;;;1.63;;
66012;SDS011;52783;50.502;8.190;2023-10-31T05:28:56;1.30;;;1.20;;
66012;SDS011;52783;50.502;8.190;2023-10-31T05:31:24;1.15;;;1.08;;
66012;SDS011;52783;50.502;8.190;2023-10-31T05:33:50;1.02;;;1.02;;
66012;SDS011;52783;50.502;8.190;2023-10-31T05:36:18;1.80;;;1.70;;
66012;SDS011;52783;50.502;8.190;2023-10-31T05:38:47;3.95;;;1.63;;
66012;SDS011;52783;50.502;8.190;2023-10-31T05:41:13;1.15;;;1.10;;
66012;SDS011;52783;50.502;8.190;2023-10-31T05:43:39;1.52;;;1.30;;
66012;SDS011;52783;50.502;8.190;2023-10-31T05:46:05;1.10;;;1.10;;
66012;SDS011;52783;50.502;8.190;2023-10-31T05:48:31;2.90;;;0.93;;
66012;SDS011;52783;50.502;8.190;2023-10-31T05:50:57;2.35;;;1.80;;
66012;SDS011;52783;50.502;8.190;2023-10-31T05:53:22;3.72;;;2.08;;
66012;SDS011;52783;50.502;8.190;2023-10-31T05:55:48;2.83;;;2.22;;
66012;SDS011;52783;50.502;8.190;2023-10-31T05:58:14;4.45;;;1.38;;
66012;SDS011;52783;50.502;8.190;2023-10-31T06:00:39;3.33;;;1.67;;
66012;SDS011;52783;50.502;8.190;2023-10-31T06:03:05;3.33;;;1.33;;
66012;SDS011;52783;50.502;8.190;2023-10-31T06:05:31;2.65;;;1.38;;
66012;SDS011;52783;50.502;8.190;2023-10-31T06:07:56;1.00;;;1.00;;
66012;SDS011;52783;50.502;8.190;2023-10-31T06:10:22;2.58;;;1.33;;
66012;SDS011;52783;50.502;8.190;2023-10-31T06:12:47;1.63;;;1.52;;
66012;SDS011;52783;50.502;8.190;2023-10-31T06:15:13;1.10;;;1.10;;
66012;SDS011;52783;50.502;8.190;2023-10-31T06:17:38;14.57;;;5.20;;
66012;SDS011;52783;50.502;8.190;2023-10-31T06:20:05;5.97;;;2.47;;
66012;SDS011;52783;50.502;8.190;2023-10-31T06:22:32;2.15;;;1.95;;
66012;SDS011;52783;50.502;8.190;2023-10-31T06:24:58;3.88;;;1.95;;
66012;SDS011;52783;50.502;8.190;2023-10-31T06:27:23;1.95;;;1.45;;
66012;SDS011;52783;50.502;8.190;2023-10-31T06:29:49;3.88;;;1.48;;
66012;SDS011;52783;50.502;8.190;2023-10-31T06:32:14;1.48;;;1.17;;
66012;SDS011;52783;50.502;8.190;2023-10-31T06:34:40;2.00;;;1.80;;
66012;SDS011;52783;50.502;8.190;2023-10-31T06:37:05;3.08;;;2.30;;
66012;SDS011;52783;50.502;8.190;2023-10-31T06:39:31;2.00;;;1.90;;
66012;SDS011;52783;50.502;8.190;2023-10-31T06:41:57;1.85;;;1.70;;
66012;SDS011;52783;50.502;8.190;2023-10-31T06:44:23;2.67;;;1.98;;
66012;SDS011;52783;50.502;8.190;2023-10-31T06:46:48;2.65;;;1.80;;
66012;SDS011;52783;50.502;8.190;2023-10-31T06:49:14;1.40;;;1.35;;
66012;SDS011;52783;50.502;8.190;2023-10-31T06:51:40;1.92;;;1.75;;
66012;SDS011;52783;50.502;8.190;2023-10-31T06:54:06;4.20;;;1.90;;
66012;SDS011;52783;50.502;8.190;2023-10-31T06:56:32;3.63;;;2.00;;
66012;SDS011;52783;50.502;8.190;2023-10-31T06:58:57;1.77;;;1.67;;
66012;SDS011;52783;50.502;8.190;2023-10-31T07:01:23;6.70;;;1.80;;
66012;SDS011;52783;50.502;8.190;2023-10-31T07:03:48;5.95;;;1.83;;
66012;SDS011;52783;50.502;8.190;2023-10-31T07:06:14;1.58;;;1.40;;
66012;SDS011;52783;50.502;8.190;2023-10-31T07:08:40;1.98;;;1.60;;
66012;SDS011;52783;50.502;8.190;2023-10-31T07:11:05;2.05;;;1.83;;
66012;SDS011;52783;50.502;8.190;2023-10-31T07:13:31;2.28;;;1.88;;
66012;SDS011;52783;50.502;8.190;2023-10-31T07:15:57;4.20;;;2.03;;
66012;SDS011;52783;50.502;8.190;2023-10-31T07:18:22;3.55;;;1.70;;
66012;SDS011;52783;50.502;8.190;2023-10-31T07:20:48;1.85;;;1.60;;
66012;SDS011;52783;50.502;8.190;2023-10-31T07:23:13;3.60;;;2.10;;
66012;SDS011;52783;50.502;8.190;2023-10-31T07:25:39;2.28;;;1.70;;
66012;SDS011;52783;50.502;8.190;2023-10-31T07:28:05;4.03;;;1.65;;
66012;SDS011;52783;50.502;8.190;2023-10-31T07:30:30;2.80;;;1.90;;
66012;SDS011;52783;50.502;8.190;2023-10-31T07:32:56;2.35;;;1.90;;
66012;SDS011;52783;50.502;8.190;2023-10-31T07:35:21;2.67;;;2.03;;
66012;SDS011;52783;50.502;8.190;2023-10-31T07:37:47;4.47;;;2.50;;
66012;SDS011;52783;50.502;8.190;2023-10-31T07:40:12;3.92;;;2.03;;
66012;SDS011;52783;50.502;8.190;2023-10-31T07:42:38;2.80;;;1.92;;
66012;SDS011;52783;50.502;8.190;2023-10-31T07:45:04;3.05;;;1.90;;
66012;SDS011;52783;50.502;8.190;2023-10-31T07:47:30;2.47;;;1.30;;
66012;SDS011;52783;50.502;8.190;2023-10-31T07:49:55;1.88;;;1.67;;
66012;SDS011;52783;50.502;8.190;2023-10-31T07:52:21;5.35;;;1.70;;
66012;SDS011;52783;50.502;8.190;2023-10-31T07:54:46;2.08;;;1.33;;
66012;SDS011;52783;50.502;8.190;2023-10-31T07:57:12;1.80;;;1.70;;
66012;SDS011;52783;50.502;8.190;2023-10-31T07:59:38;4.20;;;1.55;;
66012;SDS011;52783;50.502;8.190;2023-10-31T08:02:03;7.07;;;1.80;;
66012;SDS011;52783;50.502;8.190;2023-10-31T08:04:29;2.03;;;1.63;;
66012;SDS011;52783;50.502;8.190;2023-10-31T08:06:55;2.17;;;1.70;;
66012;SDS011;52783;50.502;8.190;2023-10-31T08:09:20;1.92;;;1.75;;
66012;SDS011;52783;50.502;8.190;2023-10-31T08:11:46;3.33;;;1.70;;
66012;SDS011;52783;50.502;8.190;2023-10-31T08:14:12;1.35;;;1.33;;
66012;SDS011;52783;50.502;8.190;2023-10-31T08:16:37;2.35;;;1.55;;
66012;SDS011;52783;50.502;8.190;2023-10-31T08:19:03;1.95;;;1.70;;
66012;SDS011;52783;50.502;8.190;2023-10-31T08:21:29;6.60;;;3.75;;
66012;SDS011;52783;50.502;8.190;2023-10-31T08:24:00;9.98;;;3.95;;
66012;SDS011;52783;50.502;8.190;2023-10-31T08:26:29;3.88;;;2.10;;
66012;SDS011;52783;50.502;8.190;2023-10-31T08:28:55;2.53;;;2.30;;
66012;SDS011;52783;50.502;8.190;2023-10-31T08:31:21;3.63;;;2.13;;
66012;SDS011;52783;50.502;8.190;2023-10-31T08:33:46;3.90;;;1.42;;
66012;SDS011;52783;50.502;8.190;2023-10-31T08:36:12;1.83;;;1.70;;
66012;SDS011;52783;50.502;8.190;2023-10-31T08:38:38;1.90;;;1.77;;
66012;SDS011;52783;50.502;8.190;2023-10-31T08:41:03;7.25;;;1.60;;
66012;SDS011;52783;50.502;8.190;2023-10-31T08:43:29;1.65;;;1.50;;
66012;SDS011;52783;50.502;8.190;2023-10-31T08:45:54;6.47;;;1.52;;
66012;SDS011;52783;50.502;8.190;2023-10-31T08:48:20;5.03;;;2.55;;
66012;SDS011;52783;50.502;8.190;2023-10-31T08:50:46;3.40;;;2.20;;
66012;SDS011;52783;50.502;8.190;2023-10-31T08:53:11;1.63;;;1.52;;
66012;SDS011;52783;50.502;8.190;2023-10-31T08:55:37;1.60;;;1.50;;
66012;SDS011;52783;50.502;8.190;2023-10-31T08:58:02;1.88;;;1.50;;
66012;SDS011;52783;50.502;8.190;2023-10-31T09:00:28;1.90;;;1.63;;
66012;SDS011;52783;50.502;8.190;2023-10-31T09:02:54;4.50;;;1.80;;
66012;SDS011;52783;50.502;8.190;2023-10-31T09:05:19;2.17;;;1.63;;
66012;SDS011;52783;50.502;8.190;2023-10-31T09:07:45;2.20;;;1.80;;
66012;SDS011;52783;50.502;8.190;2023-10-31T09:10:11;3.22;;;1.70;;
66012;SDS011;52783;50.502;8.190;2023-10-31T09:12:37;2.97;;;1.83;;
66012;SDS011;52783;50.502;8.190;2023-10-31T09:15:03;2.28;;;1.33;;
66012;SDS011;52783;50.502;8.190;2023-10-31T09:17:29;7.40;;;3.70;;
66012;SDS011;52783;50.502;8.190;2023-10-31T09:19:55;4.38;;;2.50;;
66012;SDS011;52783;50.502;8.190;2023-10-31T09:22:20;2.20;;;2.00;;
66012;SDS011;52783;50.502;8.190;2023-10-31T09:24:46;2.95;;;1.80;;
66012;SDS011;52783;50.502;8.190;2023-10-31T09:27:11;2.78;;;1.70;;
66012;SDS011;52783;50.502;8.190;2023-10-31T09:29:37;3.42;;;1.90;;
66012;SDS011;52783;50.502;8.190;2023-10-31T09:32:03;4.88;;;1.92;;
66012;SDS011;52783;50.502;8.190;2023-10-31T09:34:30;1.75;;;1.58;;
66012;SDS011;52783;50.502;8.190;2023-10-31T09:36:56;6.78;;;1.95;;
66012;SDS011;52783;50.502;8.190;2023-10-31T09:39:21;5.07;;;3.00;;
66012;SDS011;52783;50.502;8.190;2023-10-31T09:41:48;2.97;;;2.33;;
66012;SDS011;52783;50.502;8.190;2023-10-31T09:44:13;2.17;;;1.80;;
66012;SDS011;52783;50.502;8.190;2023-10-31T09:46:39;1.75;;;1.65;;
66012;SDS011;52783;50.502;8.190;2023-10-31T09:49:06;6.88;;;1.80;;
66012;SDS011;52783;50.502;8.190;2023-10-31T09:51:33;1.70;;;1.60;;
66012;SDS011;52783;50.502;8.190;2023-10-31T09:53:59;5.18;;;1.98;;
66012;SDS011;52783;50.502;8.190;2023-10-31T09:56:26;2.75;;;1.63;;
66012;SDS011;52783;50.502;8.190;2023-10-31T09:58:59;3.08;;;1.95;;
66012;SDS011;52783;50.502;8.190;2023-10-31T10:01:28;4.22;;;1.42;;
66012;SDS011;52783;50.502;8.190;2023-10-31T10:03:54;4.75;;;1.83;;
66012;SDS011;52783;50.502;8.190;2023-10-31T10:06:21;3.30;;;1.45;;
66012;SDS011;52783;50.502;8.190;2023-10-31T10:08:48;1.50;;;1.40;;
66012;SDS011;52783;50.502;8.190;2023-10-31T10:11:14;3.85;;;1.50;;
66012;SDS011;52783;50.502;8.190;2023-10-31T10:13:40;2.20;;;1.45;;
66012;SDS011;52783;50.502;8.190;2023-10-31T10:16:06;1.95;;;1.25;;
66012;SDS011;52783;50.502;8.190;2023-10-31T10:18:32;2.80;;;1.60;;
66012;SDS011;52783;50.502;8.190;2023-10-31T10:21:04;1.65;;;1.15;;
66012;SDS011;52783;50.502;8.190;2023-10-31T10:23:31;6.10;;;2.60;;
66012;SDS011;52783;50.502;8.190;2023-10-31T10:25:57;3.55;;;1.67;;
66012;SDS011;52783;50.502;8.190;2023-10-31T10:28:24;2.75;;;1.70;;
66012;SDS011;52783;50.502;8.190;2023-10-31T10:30:50;5.25;;;1.60;;
66012;SDS011;52783;50.502;8.190;2023-10-31T10:33:17;3.50;;;2.13;;
66012;SDS011;52783;50.502;8.190;2023-10-31T10:35:43;1.90;;;1.73;;
66012;SDS011;52783;50.502;8.190;2023-10-31T10:38:13;1.63;;;1.52;;
66012;SDS011;52783;50.502;8.190;2023-10-31T10:40:41;3.80;;;1.73;;
66012;SDS011;52783;50.502;8.190;2023-10-31T10:43:26;3.00;;;1.27;;
66012;SDS011;52783;50.502;8.190;2023-10-31T10:45:54;0.98;;;0.88;;
66012;SDS011;52783;50.502;8.190;2023-10-31T10:48:21;2.05;;;1.67;;
66012;SDS011;52783;50.502;8.190;2023-10-31T10:50:49;1.10;;;1.10;;
66012;SDS011;52783;50.502;8.190;2023-10-31T10:53:32;1.52;;;1.20;;
66012;SDS011;52783;50.502;8.190;2023-10-31T10:56:07;5.00;;;2.00;;
66012;SDS011;52783;50.502;8.190;2023-10-31T10:58:51;2.80;;;2.25;;
66012;SDS011;52783;50.502;8.190;2023-10-31T11:01:25;3.58;;;1.65;;
66012;SDS011;52783;50.502;8.190;2023-10-31T11:03:53;6.68;;;1.30;;
66012;SDS011;52783;50.502;8.190;2023-10-31T11:06:20;3.58;;;1.15;;
66012;SDS011;52783;50.502;8.190;2023-10-31T11:08:46;2.15;;;1.33;;
66012;SDS011;52783;50.502;8.190;2023-10-31T11:11:12;6.10;;;1.35;;
66012;SDS011;52783;50.502;8.190;2023-10-31T11:13:41;1.55;;;1.25;;
66012;SDS011;52783;50.502;8.190;2023-10-31T11:16:11;4.32;;;1.23;;
66012;SDS011;52783;50.502;8.190;2023-10-31T11:18:42;2.40;;;1.60;;
66012;SDS011;52783;50.502;8.190;2023-10-31T11:21:08;11.45;;;1.45;;
66012;SDS011;52783;50.502;8.190;2023-10-31T11:23:35;1.52;;;1.27;;
66012;SDS011;52783;50.502;8.190;2023-10-31T11:26:01;4.18;;;1.38;;
66012;SDS011;52783;50.502;8.190;2023-10-31T11:28:26;2.70;;;1.23;;
66012;SDS011;52783;50.502;8.190;2023-10-31T11:30:52;5.60;;;1.55;;
66012;SDS011;52783;50.502;8.190;2023-10-31T11:33:24;4.47;;;1.40;;
66012;SDS011;52783;50.502;8.190;2023-10-31T11:35:50;3.00;;;1.15;;
66012;SDS011;52783;50.502;8.190;2023-10-31T11:38:16;1.98;;;1.50;;
66012;SDS011;52783;50.502;8.190;2023-10-31T11:43:21;1.30;;;1.20;;
66012;SDS011;52783;50.502;8.190;2023-10-31T11:45:47;1.63;;;1.15;;
66012;SDS011;52783;50.502;8.190;2023-10-31T11:48:13;5.22;;;1.48;;
66012;SDS011;52783;50.502;8.190;2023-10-31T11:50:39;2.17;;;1.17;;
66012;SDS011;52783;50.502;8.190;2023-10-31T11:53:06;1.65;;;1.17;;
66012;SDS011;52783;50.502;8.190;2023-10-31T11:55:40;1.98;;;0.82;;
66012;SDS011;52783;50.502;8.190;2023-10-31T11:58:18;1.30;;;0.82;;
66012;SDS011;52783;50.502;8.190;2023-10-31T12:00:48;2.78;;;1.52;;
66012;SDS011;52783;50.502;8.190;2023-10-31T12:03:19;1.23;;;0.93;;
66012;SDS011;52783;50.502;8.190;2023-10-31T12:05:55;2.35;;;1.40;;
66012;SDS011;52783;50.502;8.190;2023-10-31T12:08:29;3.58;;;1.13;;
66012;SDS011;52783;50.502;8.190;2023-10-31T12:11:05;4.32;;;1.02;;
66012;SDS011;52783;50.502;8.190;2023-10-31T12:16:26;3.63;;;1.20;;
66012;SDS011;52783;50.502;8.190;2023-10-31T12:18:56;7.30;;;1.30;;
66012;SDS011;52783;50.502;8.190;2023-10-31T12:24:09;3.33;;;1.23;;
66012;SDS011;52783;50.502;8.190;2023-10-31T12:26:37;1.10;;;1.00;;
66012;SDS011;52783;50.502;8.190;2023-10-31T12:29:16;4.18;;;1.10;;
66012;SDS011;52783;50.502;8.190;2023-10-31T12:31:43;2.50;;;1.55;;
66012;SDS011;52783;50.502;8.190;2023-10-31T12:34:11;7.53;;;1.20;;
66012;SDS011;52783;50.502;8.190;2023-10-31T12:36:37;1.52;;;1.15;;
66012;SDS011;52783;50.502;8.190;2023-10-31T12:39:04;3.45;;;1.10;;
66012;SDS011;52783;50.502;8.190;2023-10-31T12:41:32;1.83;;;0.98;;
66012;SDS011;52783;50.502;8.190;2023-10-31T12:43:58;1.85;;;1.17;;
66012;SDS011;52783;50.502;8.190;2023-10-31T12:46:24;3.25;;;1.10;;
66012;SDS011;52783;50.502;8.190;2023-10-31T12:48:54;5.00;;;1.30;;
66012;SDS011;52783;50.502;8.190;2023-10-31T12:51:20;1.77;;;1.05;;
66012;SDS011;52783;50.502;8.190;2023-10-31T12:53:49;4.07;;;0.98;;
66012;SDS011;52783;50.502;8.190;2023-10-31T12:59:04;4.30;;;1.05;;
66012;SDS011;52783;50.502;8.190;2023-10-31T13:01:32;2.40;;;1.20;;
66012;SDS011;52783;50.502;8.190;2023-10-31T13:03:59;2.58;;;1.20;;
66012;SDS011;52783;50.502;8.190;2023-10-31T13:06:24;2.47;;;1.20;;
66012;SDS011;52783;50.502;8.190;2023-10-31T13:08:50;2.38;;;1.20;;
66012;SDS011;52783;50.502;8.190;2023-10-31T13:11:15;3.20;;;1.70;;
66012;SDS011;52783;50.502;8.190;2023-10-31T13:13:42;6.22;;;1.35;;
66012;SDS011;52783;50.502;8.190;2023-10-31T13:16:07;2.75;;;1.30;;
66012;SDS011;52783;50.502;8.190;2023-10-31T13:18:33;3.35;;;1.35;;
66012;SDS011;52783;50.502;8.190;2023-10-31T13:21:01;2.97;;;1.00;;
66012;SDS011;52783;50.502;8.190;2023-10-31T13:23:26;3.58;;;1.40;;
66012;SDS011;52783;50.502;8.190;2023-10-31T13:25:52;1.75;;;1.20;;
66012;SDS011;52783;50.502;8.190;2023-10-31T13:28:17;6.28;;;2.08;;
66012;SDS011;52783;50.502;8.190;2023-10-31T13:30:43;2.58;;;1.50;;
66012;SDS011;52783;50.502;8.190;2023-10-31T13:33:08;3.25;;;1.48;;
66012;SDS011;52783;50.502;8.190;2023-10-31T13:35:33;4.65;;;1.65;;
66012;SDS011;52783;50.502;8.190;2023-10-31T13:37:59;3.45;;;1.45;;
66012;SDS011;52783;50.502;8.190;2023-10-31T13:40:25;2.53;;;1.33;;
66012;SDS011;52783;50.502;8.190;2023-10-31T13:42:51;2.33;;;1.00;;
66012;SDS011;52783;50.502;8.190;2023-10-31T13:45:16;2.75;;;1.25;;
66012;SDS011;52783;50.502;8.190;2023-10-31T13:47:42;2.28;;;1.27;;
66012;SDS011;52783;50.502;8.190;2023-10-31T13:50:08;2.55;;;1.50;;
66012;SDS011;52783;50.502;8.190;2023-10-31T13:52:33;2.83;;;1.30;;
66012;SDS011;52783;50.502;8.190;2023-10-31T13:54:59;4.68;;;1.05;;
66012;SDS011;52783;50.502;8.190;2023-10-31T13:57:24;3.60;;;1.65;;
66012;SDS011;52783;50.502;8.190;2023-10-31T13:59:50;8.70;;;1.50;;
66012;SDS011;52783;50.502;8.190;2023-10-31T14:02:16;6.28;;;1.58;;
66012;SDS011;52783;50.502;8.190;2023-10-31T14:04:42;2.47;;;1.35;;
66012;SDS011;52783;50.502;8.190;2023-10-31T14:07:07;4.90;;;1.50;;
66012;SDS011;52783;50.502;8.190;2023-10-31T14:09:33;6.70;;;1.25;;
66012;SDS011;52783;50.502;8.190;2023-10-31T14:11:59;3.55;;;1.40;;
66012;SDS011;52783;50.502;8.190;2023-10-31T14:14:24;4.15;;;1.50;;
66012;SDS011;52783;50.502;8.190;2023-10-31T14:16:50;2.58;;;1.63;;
66012;SDS011;52783;50.502;8.190;2023-10-31T14:19:15;5.18;;;1.27;;
66012;SDS011;52783;50.502;8.190;2023-10-31T14:21:41;5.43;;;1.65;;
66012;SDS011;52783;50.502;8.190;2023-10-31T14:24:07;3.83;;;1.83;;
66012;SDS011;52783;50.502;8.190;2023-10-31T14:26:33;7.93;;;1.70;;
66012;SDS011;52783;50.502;8.190;2023-10-31T14:28:59;6.88;;;1.77;;
66012;SDS011;52783;50.502;8.190;2023-10-31T14:31:25;5.20;;;1.40;;
66012;SDS011;52783;50.502;8.190;2023-10-31T14:33:51;3.00;;;1.20;;
66012;SDS011;52783;50.502;8.190;2023-10-31T14:36:16;5.95;;;1.48;;
66012;SDS011;52783;50.502;8.190;2023-10-31T14:38:42;5.63;;;1.65;;
66012;SDS011;52783;50.502;8.190;2023-10-31T14:41:08;3.42;;;1.70;;
66012;SDS011;52783;50.502;8.190;2023-10-31T14:43:34;3.17;;;1.48;;
66012;SDS011;52783;50.502;8.190;2023-10-31T14:46:00;3.42;;;1.60;;
66012;SDS011;52783;50.502;8.190;2023-10-31T14:48:26;3.03;;;1.60;;
66012;SDS011;52783;50.502;8.190;2023-10-31T14:50:52;3.88;;;1.73;;
66012;SDS011;52783;50.502;8.190;2023-10-31T14:53:17;6.28;;;2.03;;